createdAt,value
2017-03-08T00:00:33.823Z,984.88
2017-03-08T00:01:44.516Z,984.92
2017-03-08T00:02:55.209Z,984.9
2017-03-08T00:04:05.915Z,984.91
2017-03-08T00:05:16.626Z,984.89
2017-03-08T00:06:27.333Z,984.87
2017-03-08T00:07:37.643Z,984.82
2017-03-08T00:08:48.385Z,984.85
2017-03-08T00:09:58.694Z,984.81
2017-03-08T00:11:09.398Z,984.8
2017-03-08T00:12:20.132Z,984.74
2017-03-08T00:13:30.837Z,984.78
2017-03-08T00:14:41.158Z,984.74
2017-03-08T00:15:51.847Z,984.71
2017-03-08T00:17:02.573Z,984.73
2017-03-08T00:18:13.268Z,984.75
2017-03-08T00:19:23.954Z,984.71
2017-03-08T00:20:34.675Z,984.7
2017-03-08T00:21:44.961Z,984.72
2017-03-08T00:22:55.672Z,984.69
2017-03-08T00:24:06.379Z,984.7
2017-03-08T00:25:17.082Z,984.73
2017-03-08T00:26:27.383Z,984.73
2017-03-08T00:27:38.084Z,984.72
2017-03-08T00:28:48.797Z,984.69
2017-03-08T00:29:59.097Z,984.72
2017-03-08T00:31:09.799Z,984.71
2017-03-08T00:32:20.512Z,984.71
2017-03-08T00:33:31.226Z,984.72
2017-03-08T00:34:41.934Z,984.72
2017-03-08T00:35:52.616Z,984.65
2017-03-08T00:37:03.304Z,984.67
2017-03-08T00:38:13.994Z,984.66
2017-03-08T00:39:24.722Z,984.63
2017-03-08T00:40:35.442Z,984.57
2017-03-08T00:41:46.129Z,984.51
2017-03-08T00:42:56.828Z,984.51
2017-03-08T00:44:07.540Z,984.49
2017-03-08T00:45:18.234Z,984.43
2017-03-08T00:46:28.939Z,984.45
2017-03-08T00:47:39.657Z,984.37
2017-03-08T00:48:50.356Z,984.4
2017-03-08T00:50:01.058Z,984.37
2017-03-08T00:51:11.773Z,984.37
2017-03-08T00:52:22.061Z,984.38
2017-03-08T00:53:32.784Z,984.31
2017-03-08T00:54:43.475Z,984.33
2017-03-08T00:55:54.195Z,984.35
2017-03-08T00:57:04.893Z,984.29
2017-03-08T00:58:15.599Z,984.27
2017-03-08T00:59:25.919Z,984.26
2017-03-08T01:00:36.619Z,984.3
2017-03-08T01:01:47.336Z,984.21
2017-03-08T01:02:58.036Z,984.22
2017-03-08T01:04:08.735Z,984.22
2017-03-08T01:05:19.449Z,984.2
2017-03-08T01:06:30.151Z,984.18
2017-03-08T01:07:40.460Z,984.13
2017-03-08T01:08:51.172Z,984.13
2017-03-08T01:10:01.903Z,984.05
2017-03-08T01:11:12.214Z,984.06
2017-03-08T01:12:22.916Z,983.97
2017-03-08T01:13:33.629Z,983.97
2017-03-08T01:14:44.354Z,983.95
2017-03-08T01:15:55.063Z,983.91
2017-03-08T01:17:05.781Z,983.93
2017-03-08T01:18:16.507Z,983.92
2017-03-08T01:19:27.212Z,983.91
2017-03-08T01:20:37.913Z,983.89
2017-03-08T01:21:48.207Z,983.89
2017-03-08T01:22:58.922Z,983.89
2017-03-08T01:24:09.645Z,983.88
2017-03-08T01:25:19.959Z,983.85
2017-03-08T01:26:30.655Z,983.91
2017-03-08T01:27:41.355Z,983.9
2017-03-08T01:28:52.053Z,983.88
2017-03-08T01:30:02.751Z,983.87
2017-03-08T01:31:13.053Z,983.81
2017-03-08T01:32:23.771Z,983.79
2017-03-08T01:33:34.476Z,983.79
2017-03-08T01:34:44.777Z,983.78
2017-03-08T01:35:55.471Z,983.76
2017-03-08T01:37:05.791Z,983.78
2017-03-08T01:38:16.099Z,983.71
2017-03-08T01:39:26.390Z,983.7
2017-03-08T01:40:37.112Z,983.7
2017-03-08T01:41:47.797Z,983.7
2017-03-08T01:42:58.125Z,983.69
2017-03-08T01:44:08.831Z,983.69
2017-03-08T01:45:19.546Z,983.72
2017-03-08T01:46:30.234Z,983.67
2017-03-08T01:47:40.937Z,983.69
2017-03-08T01:48:51.248Z,983.67
2017-03-08T01:50:01.956Z,983.67
2017-03-08T01:51:12.666Z,983.66
2017-03-08T01:52:22.971Z,983.67
2017-03-08T01:53:33.280Z,983.72
2017-03-08T01:54:44.001Z,983.69
2017-03-08T01:55:54.323Z,983.69
2017-03-08T01:57:05.029Z,983.66
2017-03-08T01:58:15.343Z,983.7
2017-03-08T01:59:26.035Z,983.68
2017-03-08T02:00:36.747Z,983.68
2017-03-08T02:01:47.056Z,983.68
2017-03-08T02:02:57.756Z,983.74
2017-03-08T02:04:08.452Z,983.73
2017-03-08T02:05:19.142Z,983.74
2017-03-08T02:06:29.448Z,983.75
2017-03-08T02:07:40.148Z,983.69
2017-03-08T02:08:50.850Z,983.68
2017-03-08T02:10:01.559Z,983.73
2017-03-08T02:11:11.911Z,983.7
2017-03-08T02:12:22.614Z,983.64
2017-03-08T02:13:33.309Z,983.62
2017-03-08T02:14:44.000Z,983.6
2017-03-08T02:15:54.700Z,983.59
2017-03-08T02:17:05.407Z,983.57
2017-03-08T02:18:16.099Z,983.55
2017-03-08T02:19:26.792Z,983.54
2017-03-08T02:20:37.506Z,983.55
2017-03-08T02:21:47.806Z,983.54
2017-03-08T02:22:58.538Z,983.56
2017-03-08T02:24:09.242Z,983.56
2017-03-08T02:25:19.185Z,983.52
2017-03-08T02:26:29.885Z,983.53
2017-03-08T02:27:40.588Z,983.56
2017-03-08T02:28:51.287Z,983.52
2017-03-08T02:30:01.995Z,983.5
2017-03-08T02:31:12.700Z,983.49
2017-03-08T02:32:23.412Z,983.47
2017-03-08T02:33:33.307Z,983.46
2017-03-08T02:34:44.027Z,983.44
2017-03-08T02:35:54.742Z,983.47
2017-03-08T02:37:05.476Z,983.49
2017-03-08T02:38:15.785Z,983.45
2017-03-08T02:39:26.092Z,983.45
2017-03-08T02:40:36.779Z,983.44
2017-03-08T02:41:47.502Z,983.43
2017-03-08T02:42:58.259Z,983.36
2017-03-08T02:44:08.957Z,983.33
2017-03-08T02:45:19.267Z,983.29
2017-03-08T02:46:29.982Z,983.26
2017-03-08T02:47:40.727Z,983.25
2017-03-08T02:48:51.438Z,983.25
2017-03-08T02:50:02.143Z,983.26
2017-03-08T02:51:12.438Z,983.23
2017-03-08T02:52:22.762Z,983.17
2017-03-08T02:53:33.053Z,983.18
2017-03-08T02:54:43.766Z,983.22
2017-03-08T02:57:22.203Z,983.13
2017-03-08T02:58:32.895Z,983.15
2017-03-08T02:59:43.183Z,983.11
2017-03-08T03:00:53.501Z,983.06
2017-03-08T03:02:04.311Z,983.06
2017-03-08T03:03:14.635Z,982.99
2017-03-08T03:04:25.336Z,983.05
2017-03-08T03:05:36.037Z,983.04
2017-03-08T03:06:46.725Z,983.09
2017-03-08T03:07:59.873Z,983.13
2017-03-08T03:09:10.584Z,983.1
2017-03-08T03:10:21.284Z,983.12
2017-03-08T03:11:31.984Z,983.11
2017-03-08T03:12:42.292Z,983.11
2017-03-08T03:13:53.353Z,983.09
2017-03-08T03:15:04.064Z,983.11
2017-03-08T03:16:14.775Z,983.08
2017-03-08T03:17:25.085Z,983.07
2017-03-08T03:18:35.398Z,983.07
2017-03-08T03:19:46.235Z,983.05
2017-03-08T03:20:56.530Z,983.01
2017-03-08T03:22:06.848Z,982.98
2017-03-08T03:23:17.154Z,982.96
2017-03-08T03:24:27.881Z,982.98
2017-03-08T03:26:52.203Z,982.92
2017-03-08T03:28:02.513Z,982.94
2017-03-08T03:29:13.233Z,982.93
2017-03-08T03:30:23.536Z,982.9
2017-03-08T03:31:34.337Z,982.9
2017-03-08T03:32:45.042Z,982.88
2017-03-08T03:33:55.347Z,982.88
2017-03-08T03:35:05.662Z,982.86
2017-03-08T03:36:16.379Z,982.84
2017-03-08T03:37:27.397Z,982.82
2017-03-08T03:38:38.103Z,982.79
2017-03-08T03:39:48.806Z,982.77
2017-03-08T03:40:59.527Z,982.73
2017-03-08T03:42:10.219Z,982.73
2017-03-08T03:43:21.024Z,982.74
2017-03-08T03:44:31.717Z,982.72
2017-03-08T03:45:42.420Z,982.69
2017-03-08T03:46:53.129Z,982.7
2017-03-08T03:48:03.430Z,982.66
2017-03-08T03:49:14.129Z,982.67
2017-03-08T03:50:24.853Z,982.67
2017-03-08T03:51:35.560Z,982.64
2017-03-08T03:52:46.284Z,982.58
2017-03-08T03:53:56.984Z,982.53
2017-03-08T03:55:07.677Z,982.54
2017-03-08T03:56:17.978Z,982.54
2017-03-08T03:57:28.301Z,982.55
2017-03-08T03:58:39.007Z,982.57
2017-03-08T03:59:49.702Z,982.58
2017-03-08T04:01:00.414Z,982.59
2017-03-08T04:02:11.123Z,982.53
2017-03-08T04:03:21.849Z,982.54
2017-03-08T04:04:32.550Z,982.43
2017-03-08T04:05:43.248Z,982.42
2017-03-08T04:06:53.577Z,982.51
2017-03-08T04:08:03.880Z,982.54
2017-03-08T04:09:14.192Z,982.51
2017-03-08T04:10:24.892Z,982.52
2017-03-08T04:11:35.590Z,982.46
2017-03-08T04:12:45.899Z,982.51
2017-03-08T04:13:56.202Z,982.5
2017-03-08T04:15:06.893Z,982.57
2017-03-08T04:16:17.181Z,982.58
2017-03-08T04:17:27.886Z,982.57
2017-03-08T04:18:38.603Z,982.53
2017-03-08T04:19:49.293Z,982.58
2017-03-08T04:20:59.989Z,982.52
2017-03-08T04:22:10.306Z,982.48
2017-03-08T04:23:21.012Z,982.46
2017-03-08T04:24:31.319Z,982.43
2017-03-08T04:25:42.035Z,982.4
2017-03-08T04:26:52.749Z,982.36
2017-03-08T04:28:03.460Z,982.36
2017-03-08T04:29:14.156Z,982.32
2017-03-08T04:30:24.506Z,982.32
2017-03-08T04:31:35.211Z,982.32
2017-03-08T04:32:45.901Z,982.35
2017-03-08T04:33:56.604Z,982.3
2017-03-08T04:35:07.303Z,982.28
2017-03-08T04:36:18.009Z,982.25
2017-03-08T04:37:28.719Z,982.31
2017-03-08T04:38:39.026Z,982.3
2017-03-08T04:39:49.721Z,982.27
2017-03-08T04:41:00.455Z,982.28
2017-03-08T04:42:11.156Z,982.29
2017-03-08T04:43:21.873Z,982.26
2017-03-08T04:44:32.581Z,982.24
2017-03-08T04:45:43.290Z,982.25
2017-03-08T04:46:53.602Z,982.21
2017-03-08T04:48:03.915Z,982.17
2017-03-08T04:49:14.620Z,982.16
2017-03-08T04:50:24.918Z,982.13
2017-03-08T04:51:35.622Z,982.2
2017-03-08T04:52:46.323Z,982.16
2017-03-08T04:53:57.013Z,982.18
2017-03-08T04:55:07.721Z,982.14
2017-03-08T04:56:18.039Z,982.15
2017-03-08T04:57:28.381Z,982.16
2017-03-08T04:58:39.094Z,982.14
2017-03-08T04:59:49.799Z,982.2
2017-03-08T05:01:00.498Z,982.16
2017-03-08T05:02:10.803Z,982.16
2017-03-08T05:03:21.496Z,982.17
2017-03-08T05:04:32.202Z,982.17
2017-03-08T05:05:42.517Z,982.12
2017-03-08T05:06:53.214Z,982.1
2017-03-08T05:08:03.521Z,982.07
2017-03-08T05:09:14.226Z,982.07
2017-03-08T05:10:24.536Z,982.05
2017-03-08T05:11:35.248Z,982.06
2017-03-08T05:12:45.579Z,982.11
2017-03-08T05:13:56.292Z,982.07
2017-03-08T05:15:07.008Z,982.09
2017-03-08T05:16:17.699Z,982.1
2017-03-08T05:17:28.424Z,982.05
2017-03-08T05:18:38.743Z,982.04
2017-03-08T05:19:49.433Z,982.09
2017-03-08T05:21:00.164Z,982.08
2017-03-08T05:22:10.883Z,982.07
2017-03-08T05:23:21.575Z,982.05
2017-03-08T05:24:32.286Z,982.05
2017-03-08T05:25:42.988Z,982.03
2017-03-08T05:26:53.713Z,982.01
2017-03-08T05:28:04.420Z,982.02
2017-03-08T05:29:15.129Z,981.98
2017-03-08T05:30:25.854Z,981.94
2017-03-08T05:31:36.552Z,981.94
2017-03-08T05:32:47.255Z,981.91
2017-03-08T05:33:57.966Z,981.9
2017-03-08T05:35:08.669Z,981.91
2017-03-08T05:36:18.975Z,981.88
2017-03-08T05:37:29.684Z,981.81
2017-03-08T05:38:40.386Z,981.82
2017-03-08T05:39:51.093Z,981.79
2017-03-08T05:41:01.788Z,981.78
2017-03-08T05:42:12.498Z,981.75
2017-03-08T05:43:22.807Z,981.77
2017-03-08T05:44:33.506Z,981.79
2017-03-08T05:45:44.197Z,981.81
2017-03-08T05:46:54.893Z,981.75
2017-03-08T05:48:05.596Z,981.7
2017-03-08T05:49:16.301Z,981.69
2017-03-08T05:50:26.633Z,981.64
2017-03-08T05:51:37.342Z,981.61
2017-03-08T05:52:48.053Z,981.6
2017-03-08T05:53:58.746Z,981.59
2017-03-08T05:55:09.059Z,981.57
2017-03-08T05:56:19.773Z,981.54
2017-03-08T05:57:30.472Z,981.55
2017-03-08T05:58:41.179Z,981.59
2017-03-08T05:59:51.863Z,981.57
2017-03-08T06:01:02.579Z,981.59
2017-03-08T06:02:12.894Z,981.54
2017-03-08T06:03:23.617Z,981.56
2017-03-08T06:04:34.307Z,981.55
2017-03-08T06:05:45.012Z,981.55
2017-03-08T06:06:55.716Z,981.54
2017-03-08T06:08:06.406Z,981.57
2017-03-08T06:09:17.103Z,981.59
2017-03-08T06:10:27.799Z,981.52
2017-03-08T06:11:38.122Z,981.51
2017-03-08T06:12:48.830Z,981.47
2017-03-08T06:13:59.532Z,981.5
2017-03-08T06:15:10.241Z,981.45
2017-03-08T06:16:20.959Z,981.52
2017-03-08T06:17:31.673Z,981.46
2017-03-08T06:18:41.974Z,981.44
2017-03-08T06:19:52.664Z,981.43
2017-03-08T06:21:03.376Z,981.4
2017-03-08T06:22:14.089Z,981.43
2017-03-08T06:23:24.803Z,981.41
2017-03-08T06:24:35.488Z,981.41
2017-03-08T06:25:46.188Z,981.41
2017-03-08T06:26:56.497Z,981.42
2017-03-08T06:28:06.793Z,981.42
2017-03-08T06:29:17.502Z,981.37
2017-03-08T06:30:28.205Z,981.39
2017-03-08T06:31:38.527Z,981.38
2017-03-08T06:32:49.239Z,981.37
2017-03-08T06:33:59.953Z,981.33
2017-03-08T06:35:10.659Z,981.35
2017-03-08T06:36:21.362Z,981.34
2017-03-08T06:37:32.076Z,981.37
2017-03-08T06:38:42.797Z,981.37
2017-03-08T06:39:53.523Z,981.44
2017-03-08T06:41:04.217Z,981.43
2017-03-08T06:42:14.916Z,981.42
2017-03-08T06:43:25.254Z,981.44
2017-03-08T06:44:35.966Z,981.41
2017-03-08T06:45:46.712Z,981.44
2017-03-08T06:46:57.415Z,981.43
2017-03-08T06:48:08.126Z,981.46
2017-03-08T06:49:18.425Z,981.45
2017-03-08T06:50:28.719Z,981.42
2017-03-08T06:51:39.411Z,981.41
2017-03-08T06:52:49.755Z,981.38
2017-03-08T06:54:00.102Z,981.32
2017-03-08T06:55:10.806Z,981.32
2017-03-08T06:56:21.530Z,981.31
2017-03-08T06:57:31.832Z,981.3
2017-03-08T06:58:42.551Z,981.31
2017-03-08T06:59:52.868Z,981.34
2017-03-08T07:01:03.582Z,981.33
2017-03-08T07:02:13.898Z,981.38
2017-03-08T07:03:24.598Z,981.37
2017-03-08T07:04:34.888Z,981.37
2017-03-08T07:05:45.202Z,981.34
2017-03-08T07:06:55.928Z,981.38
2017-03-08T07:08:06.646Z,981.34
2017-03-08T07:09:17.350Z,981.35
2017-03-08T07:10:28.038Z,981.41
2017-03-08T07:11:38.341Z,981.4
2017-03-08T07:12:49.037Z,981.42
2017-03-08T07:13:59.731Z,981.4
2017-03-08T07:15:10.451Z,981.4
2017-03-08T07:16:21.178Z,981.38
2017-03-08T07:17:31.885Z,981.37
2017-03-08T07:18:42.605Z,981.38
2017-03-08T07:19:52.898Z,981.33
2017-03-08T07:21:03.610Z,981.35
2017-03-08T07:22:14.316Z,981.34
2017-03-08T07:23:24.629Z,981.33
2017-03-08T07:24:34.919Z,981.36
2017-03-08T07:25:45.227Z,981.41
2017-03-08T07:26:55.519Z,981.38
2017-03-08T07:28:06.238Z,981.44
2017-03-08T07:29:16.547Z,981.35
2017-03-08T07:30:26.857Z,981.34
2017-03-08T07:31:37.540Z,981.34
2017-03-08T07:32:47.852Z,981.36
2017-03-08T07:33:58.154Z,981.32
2017-03-08T07:35:08.859Z,981.33
2017-03-08T07:36:19.570Z,981.35
2017-03-08T07:37:30.281Z,981.31
2017-03-08T07:38:40.973Z,981.27
2017-03-08T07:39:51.696Z,981.25
2017-03-08T07:41:02.401Z,981.18
2017-03-08T07:42:13.108Z,981.26
2017-03-08T07:43:23.029Z,981.21
2017-03-08T07:44:33.794Z,981.29
2017-03-08T07:45:44.544Z,981.27
2017-03-08T07:46:54.876Z,981.26
2017-03-08T07:48:05.576Z,981.26
2017-03-08T07:49:16.279Z,981.26
2017-03-08T07:50:26.210Z,981.28
2017-03-08T07:51:36.917Z,981.27
2017-03-08T07:52:47.622Z,981.28
2017-03-08T07:53:57.942Z,981.29
2017-03-08T07:55:08.647Z,981.22
2017-03-08T07:56:18.949Z,981.25
2017-03-08T07:57:29.256Z,981.28
2017-03-08T07:58:39.986Z,981.26
2017-03-08T07:59:50.721Z,981.27
2017-03-08T08:01:01.407Z,981.22
2017-03-08T08:02:11.704Z,981.18
2017-03-08T08:03:22.007Z,981.2
2017-03-08T08:04:32.704Z,981.23
2017-03-08T08:05:43.006Z,981.18
2017-03-08T08:06:53.716Z,981.21
2017-03-08T08:08:03.632Z,981.22
2017-03-08T08:09:14.344Z,981.16
2017-03-08T08:10:24.669Z,981.19
2017-03-08T08:11:34.965Z,981.17
2017-03-08T08:12:45.283Z,981.12
2017-03-08T08:13:55.994Z,981.13
2017-03-08T08:15:06.698Z,981.15
2017-03-08T08:16:17.392Z,981.16
2017-03-08T08:17:28.125Z,981.17
2017-03-08T08:18:38.440Z,981.17
2017-03-08T08:19:49.137Z,981.15
2017-03-08T08:20:59.838Z,981.14
2017-03-08T08:22:10.552Z,981.17
2017-03-08T08:23:21.246Z,981.16
2017-03-08T08:24:31.953Z,981.11
2017-03-08T08:25:42.660Z,981.11
2017-03-08T08:26:53.355Z,981.06
2017-03-08T08:28:04.073Z,981
2017-03-08T08:29:14.373Z,981.04
2017-03-08T08:30:24.691Z,981.03
2017-03-08T08:31:35.006Z,981
2017-03-08T08:32:45.738Z,981.05
2017-03-08T08:33:56.430Z,980.98
2017-03-08T08:35:07.180Z,981
2017-03-08T08:36:17.491Z,980.97
2017-03-08T08:37:28.183Z,980.95
2017-03-08T08:38:38.905Z,980.98
2017-03-08T08:39:49.637Z,980.93
2017-03-08T08:41:00.338Z,980.95
2017-03-08T08:42:11.040Z,980.98
2017-03-08T08:43:21.748Z,980.96
2017-03-08T08:44:32.057Z,980.93
2017-03-08T08:45:42.368Z,980.89
2017-03-08T08:46:52.669Z,980.89
2017-03-08T08:48:03.374Z,980.93
2017-03-08T08:49:13.702Z,980.91
2017-03-08T08:50:24.425Z,980.86
2017-03-08T08:51:35.117Z,980.82
2017-03-08T08:52:45.825Z,980.82
2017-03-08T08:53:56.518Z,980.82
2017-03-08T08:55:07.221Z,980.82
2017-03-08T08:56:17.932Z,980.83
2017-03-08T08:57:28.632Z,980.79
2017-03-08T08:58:38.935Z,980.74
2017-03-08T08:59:49.631Z,980.8
2017-03-08T09:01:00.324Z,980.78
2017-03-08T09:02:11.026Z,980.8
2017-03-08T09:03:21.357Z,980.72
2017-03-08T09:04:32.053Z,980.72
2017-03-08T09:05:42.760Z,980.71
2017-03-08T09:06:53.463Z,980.68
2017-03-08T09:08:04.167Z,980.71
2017-03-08T09:09:14.872Z,980.67
2017-03-08T09:10:25.572Z,980.62
2017-03-08T09:11:35.883Z,980.6
2017-03-08T09:12:46.590Z,980.6
2017-03-08T09:13:57.291Z,980.61
2017-03-08T09:15:07.185Z,980.6
2017-03-08T09:16:17.888Z,980.62
2017-03-08T09:17:28.181Z,980.6
2017-03-08T09:18:38.907Z,980.55
2017-03-08T09:19:49.625Z,980.51
2017-03-08T09:21:00.316Z,980.53
2017-03-08T09:22:10.614Z,980.55
2017-03-08T09:23:21.335Z,980.57
2017-03-08T09:24:32.060Z,980.53
2017-03-08T09:25:42.792Z,980.59
2017-03-08T09:26:53.503Z,980.55
2017-03-08T09:28:04.201Z,980.54
2017-03-08T09:29:14.916Z,980.55
2017-03-08T09:30:25.625Z,980.54
2017-03-08T09:31:36.340Z,980.47
2017-03-08T09:32:46.648Z,980.54
2017-03-08T09:33:56.942Z,980.52
2017-03-08T09:35:07.648Z,980.51
2017-03-08T09:36:18.375Z,980.52
2017-03-08T09:37:28.294Z,980.53
2017-03-08T09:38:38.189Z,980.57
2017-03-08T09:39:48.912Z,980.52
2017-03-08T09:40:59.220Z,980.5
2017-03-08T09:42:09.944Z,980.46
2017-03-08T09:43:20.681Z,980.48
2017-03-08T09:44:31.008Z,980.44
2017-03-08T09:45:41.752Z,980.47
2017-03-08T09:46:52.465Z,980.44
2017-03-08T09:48:03.176Z,980.41
2017-03-08T09:49:13.883Z,980.45
2017-03-08T09:50:24.581Z,980.43
2017-03-08T09:51:34.912Z,980.41
2017-03-08T09:52:45.234Z,980.38
2017-03-08T09:53:55.935Z,980.37
2017-03-08T09:55:06.257Z,980.38
2017-03-08T09:56:16.971Z,980.33
2017-03-08T09:57:27.283Z,980.39
2017-03-08T09:58:37.587Z,980.33
2017-03-08T09:59:47.895Z,980.27
2017-03-08T10:00:58.218Z,980.29
2017-03-08T10:02:08.910Z,980.32
2017-03-08T10:03:19.598Z,980.32
2017-03-08T10:04:30.325Z,980.33
2017-03-08T10:05:41.083Z,980.31
2017-03-08T10:06:51.410Z,980.26
2017-03-08T10:08:02.134Z,980.26
2017-03-08T10:09:12.841Z,980.26
2017-03-08T10:10:23.540Z,980.23
2017-03-08T10:11:33.947Z,980.21
2017-03-08T10:12:44.671Z,980.22
2017-03-08T10:13:55.387Z,980.23
2017-03-08T10:15:06.115Z,980.24
2017-03-08T10:16:16.835Z,980.19
2017-03-08T10:17:27.562Z,980.22
2017-03-08T10:18:38.262Z,980.24
2017-03-08T10:19:49.010Z,980.21
2017-03-08T10:20:59.728Z,980.21
2017-03-08T10:22:10.456Z,980.18
2017-03-08T10:23:21.187Z,980.15
2017-03-08T10:24:31.921Z,980.17
2017-03-08T10:25:42.702Z,980.11
2017-03-08T10:26:53.061Z,980.08
2017-03-08T10:28:03.493Z,980.08
2017-03-08T10:29:14.278Z,980.08
2017-03-08T10:30:24.986Z,980.12
2017-03-08T10:31:35.305Z,980.06
2017-03-08T10:32:45.240Z,980.01
2017-03-08T10:33:55.956Z,980.03
2017-03-08T10:35:06.723Z,980.06
2017-03-08T10:36:17.056Z,980.02
2017-03-08T10:37:27.783Z,980.05
2017-03-08T10:38:38.110Z,980.03
2017-03-08T10:39:48.867Z,980.08
2017-03-08T10:40:59.631Z,980.01
2017-03-08T10:42:10.379Z,980.04
2017-03-08T10:43:21.110Z,980.03
2017-03-08T10:44:31.801Z,980.02
2017-03-08T10:45:42.516Z,980.04
2017-03-08T10:46:53.209Z,980.06
2017-03-08T10:48:03.935Z,980.03
2017-03-08T10:49:14.672Z,979.98
2017-03-08T10:50:25.368Z,979.95
2017-03-08T10:51:35.659Z,979.91
2017-03-08T10:52:46.364Z,979.92
2017-03-08T10:53:57.064Z,979.98
2017-03-08T10:55:07.767Z,979.94
2017-03-08T10:56:18.517Z,979.96
2017-03-08T10:57:29.224Z,980
2017-03-08T10:58:39.918Z,979.98
2017-03-08T10:59:50.626Z,979.96
2017-03-08T11:01:00.942Z,979.93
2017-03-08T11:02:11.329Z,979.87
2017-03-08T11:03:22.044Z,979.88
2017-03-08T11:04:32.760Z,979.89
2017-03-08T11:05:43.069Z,979.91
2017-03-08T11:06:53.779Z,979.86
2017-03-08T11:08:04.506Z,979.86
2017-03-08T11:09:15.206Z,979.89
2017-03-08T11:10:25.914Z,979.96
2017-03-08T11:11:36.214Z,980.05
2017-03-08T11:12:46.922Z,980.1
2017-03-08T11:13:57.267Z,980.06
2017-03-08T11:15:07.984Z,980.05
2017-03-08T11:16:18.676Z,980.13
2017-03-08T11:17:29.001Z,980.04
2017-03-08T11:18:39.707Z,980
2017-03-08T11:19:50.439Z,980.04
2017-03-08T11:21:01.166Z,980.04
2017-03-08T11:22:11.863Z,980.05
2017-03-08T11:23:22.563Z,979.94
2017-03-08T11:24:33.301Z,979.96
2017-03-08T11:25:43.618Z,979.93
2017-03-08T11:26:53.941Z,979.92
2017-03-08T11:28:04.274Z,979.9
2017-03-08T11:29:14.591Z,979.92
2017-03-08T11:30:25.296Z,979.87
2017-03-08T11:31:35.222Z,979.88
2017-03-08T11:32:45.526Z,979.85
2017-03-08T11:33:56.240Z,979.77
2017-03-08T11:35:06.956Z,979.79
2017-03-08T11:36:17.753Z,979.79
2017-03-08T11:37:28.106Z,979.79
2017-03-08T11:38:38.449Z,979.85
2017-03-08T11:39:48.369Z,979.85
2017-03-08T11:40:59.087Z,979.84
2017-03-08T11:42:09.849Z,979.85
2017-03-08T11:43:20.547Z,979.83
2017-03-08T11:44:31.254Z,979.91
2017-03-08T11:45:41.607Z,979.89
2017-03-08T11:46:51.926Z,979.92
2017-03-08T11:48:02.643Z,979.97
2017-03-08T11:49:12.966Z,979.98
2017-03-08T11:50:23.674Z,979.87
2017-03-08T11:51:34.391Z,979.83
2017-03-08T11:52:45.108Z,979.88
2017-03-08T11:53:55.440Z,979.84
2017-03-08T11:55:06.168Z,979.84
2017-03-08T11:56:16.882Z,979.83
2017-03-08T11:57:27.603Z,979.86
2017-03-08T11:58:38.316Z,979.87
2017-03-08T11:59:49.035Z,979.82
2017-03-08T12:00:59.742Z,979.84
2017-03-08T12:02:10.496Z,979.81
2017-03-08T12:03:21.271Z,979.86
2017-03-08T12:04:31.973Z,979.89
2017-03-08T12:05:41.878Z,979.92
2017-03-08T12:06:52.613Z,979.98
2017-03-08T12:08:03.333Z,979.99
2017-03-08T12:09:14.073Z,980.04
2017-03-08T12:10:24.781Z,980.08
2017-03-08T12:11:35.510Z,980.23
2017-03-08T12:12:46.246Z,980.41
2017-03-08T12:13:56.564Z,980.66
2017-03-08T12:15:07.319Z,980.9
2017-03-08T12:16:18.041Z,981.07
2017-03-08T12:17:28.755Z,981.13
2017-03-08T12:18:39.077Z,981.15
2017-03-08T12:19:49.808Z,981.26
2017-03-08T12:21:00.516Z,981.25
2017-03-08T12:22:10.913Z,981.25
2017-03-08T12:23:21.635Z,981.25
2017-03-08T12:24:32.344Z,981.17
2017-03-08T12:25:43.057Z,981.04
2017-03-08T12:26:53.767Z,981.01
2017-03-08T12:28:04.492Z,980.99
2017-03-08T12:29:15.225Z,981.02
2017-03-08T12:30:25.566Z,981.05
2017-03-08T12:31:36.300Z,980.88
2017-03-08T12:32:47.023Z,980.8
2017-03-08T12:33:57.352Z,980.85
2017-03-08T12:35:08.069Z,980.76
2017-03-08T12:36:18.796Z,980.62
2017-03-08T12:37:29.529Z,980.35
2017-03-08T12:38:40.257Z,980.2
2017-03-08T12:39:50.583Z,980.05
2017-03-08T12:41:01.300Z,980.02
2017-03-08T12:42:12.044Z,979.98
2017-03-08T12:43:22.765Z,979.97
2017-03-08T12:44:33.490Z,979.98
2017-03-08T12:45:43.404Z,980
2017-03-08T12:46:54.124Z,980.03
2017-03-08T12:48:04.848Z,980.18
2017-03-08T12:49:15.170Z,980.25
2017-03-08T12:50:25.904Z,980.2
2017-03-08T12:51:36.221Z,980.59
2017-03-08T12:52:46.535Z,980.88
2017-03-08T12:53:57.252Z,981.14
2017-03-08T12:55:07.985Z,980.73
2017-03-08T12:56:18.727Z,980.52
2017-03-08T12:57:29.439Z,980.64
2017-03-08T12:58:39.778Z,980.65
2017-03-08T12:59:49.305Z,980.43
2017-03-08T13:01:00.054Z,980.45
2017-03-08T13:02:10.783Z,980.49
2017-03-08T13:03:21.507Z,980.39
2017-03-08T13:04:32.250Z,980.31
2017-03-08T13:05:42.974Z,980.36
2017-03-08T13:06:53.322Z,980.26
2017-03-08T13:08:03.642Z,980.26
2017-03-08T13:09:14.371Z,980.09
2017-03-08T13:10:25.110Z,980.33
2017-03-08T13:11:35.842Z,980.29
2017-03-08T13:12:46.158Z,979.94
2017-03-08T13:13:56.486Z,979.91
2017-03-08T13:15:07.219Z,979.92
2017-03-08T13:16:17.945Z,979.6
2017-03-08T13:17:28.667Z,979.69
2017-03-08T13:18:39.390Z,979.87
2017-03-08T13:19:49.726Z,979.66
2017-03-08T13:21:00.452Z,979.47
2017-03-08T13:22:11.167Z,979.5
2017-03-08T13:23:21.886Z,979.11
2017-03-08T13:24:32.616Z,979.02
2017-03-08T13:25:42.945Z,979.1
2017-03-08T13:26:53.265Z,979.03
2017-03-08T13:28:03.996Z,979.01
2017-03-08T13:29:14.723Z,979.03
2017-03-08T13:30:25.028Z,979.04
2017-03-08T13:31:35.750Z,978.95
2017-03-08T13:32:46.470Z,978.86
2017-03-08T13:33:57.198Z,978.89
2017-03-08T13:35:07.135Z,979.2
2017-03-08T13:36:17.850Z,979.04
2017-03-08T13:37:28.189Z,978.94
2017-03-08T13:38:38.909Z,979.01
2017-03-08T13:39:49.619Z,978.94
2017-03-08T13:41:00.327Z,978.99
2017-03-08T13:42:10.639Z,979.26
2017-03-08T13:43:21.357Z,979.29
2017-03-08T13:44:32.075Z,979.2
2017-03-08T13:45:42.401Z,978.87
2017-03-08T13:46:52.717Z,979.02
2017-03-08T13:48:03.431Z,979.14
2017-03-08T13:49:14.152Z,978.98
2017-03-08T13:50:24.851Z,979.25
2017-03-08T13:51:35.576Z,979.42
2017-03-08T13:52:46.292Z,979.38
2017-03-08T13:53:57.107Z,979.34
2017-03-08T13:55:07.016Z,979.39
2017-03-08T13:56:17.756Z,979.16
2017-03-08T13:57:28.472Z,979.07
2017-03-08T13:58:39.177Z,979.24
2017-03-08T13:59:49.889Z,978.96
2017-03-08T14:01:00.608Z,978.83
2017-03-08T14:02:10.926Z,978.6
2017-03-08T14:03:21.623Z,978.57
2017-03-08T14:04:32.334Z,979.07
2017-03-08T14:05:43.052Z,979.37
2017-03-08T14:06:53.758Z,979.1
2017-03-08T14:08:04.504Z,979.11
2017-03-08T14:09:15.225Z,979.09
2017-03-08T14:10:25.945Z,979.23
2017-03-08T14:11:36.256Z,979.36
2017-03-08T14:12:46.974Z,979.34
2017-03-08T14:13:57.281Z,978.49
2017-03-08T14:15:07.620Z,978.63
2017-03-08T14:16:18.347Z,979.14
2017-03-08T14:17:29.055Z,978.86
2017-03-08T14:18:39.772Z,979.07
2017-03-08T14:19:50.071Z,979.08
2017-03-08T14:21:00.794Z,979.37
2017-03-08T14:22:11.500Z,979.53
2017-03-08T14:23:21.808Z,978.87
2017-03-08T14:24:32.131Z,978.43
2017-03-08T14:25:42.446Z,978.49
2017-03-08T14:26:53.147Z,978.63
2017-03-08T14:28:03.479Z,978.71
2017-03-08T14:29:14.198Z,979.01
2017-03-08T14:30:24.920Z,979.07
2017-03-08T14:31:35.629Z,978.72
2017-03-08T14:32:46.350Z,978.47
2017-03-08T14:33:57.056Z,978.43
2017-03-08T14:35:07.370Z,978.34
2017-03-08T14:36:17.689Z,978.2
2017-03-08T14:37:28.396Z,978.15
2017-03-08T14:38:39.130Z,978.21
2017-03-08T14:39:49.855Z,978.44
2017-03-08T14:41:00.573Z,978.63
2017-03-08T14:42:10.890Z,978.42
2017-03-08T14:43:21.606Z,978.07
2017-03-08T14:44:31.932Z,978.07
2017-03-08T14:45:42.626Z,977.99